sensor_id;sensor_type;location;lat;lon;timestamp;pressure;altitude;pressure_sealevel;temperature;humidity
15568;BME280;7885;42.596;23.044;2023-02-28T00:01:29;93345.78;;;7.82;100.00
15568;BME280;7885;42.596;23.044;2023-02-28T00:03:57;93351.16;;;7.78;100.00
15568;BME280;7885;42.596;23.044;2023-02-28T00:06:24;93363.53;;;7.79;100.00
15568;BME280;7885;42.596;23.044;2023-02-28T00:08:51;93339.63;;;7.58;100.00
15568;BME280;7885;42.596;23.044;2023-02-28T00:11:18;93354.38;;;7.61;100.00
15568;BME280;7885;42.596;23.044;2023-02-28T00:13:46;93368.44;;;7.70;100.00
15568;BME280;7885;42.596;23.044;2023-02-28T00:16:15;93363.06;;;7.74;100.00
15568;BME280;7885;42.596;23.044;2023-02-28T00:18:42;93337.34;;;7.60;100.00
15568;BME280;7885;42.596;23.044;2023-02-28T00:21:10;93371.63;;;7.76;100.00
15568;BME280;7885;42.596;23.044;2023-02-28T00:23:37;93363.41;;;7.69;100.00
15568;BME280;7885;42.596;23.044;2023-02-28T00:26:04;93309.44;;;7.30;100.00
15568;BME280;7885;42.596;23.044;2023-02-28T00:28:31;93367.13;;;7.60;100.00
15568;BME280;7885;42.596;23.044;2023-02-28T00:30:58;93337.44;;;7.41;100.00
15568;BME280;7885;42.596;23.044;2023-02-28T00:33:25;93360.69;;;7.69;100.00
15568;BME280;7885;42.596;23.044;2023-02-28T00:35:52;93361.09;;;7.71;100.00
15568;BME280;7885;42.596;23.044;2023-02-28T00:38:28;93308.03;;;7.40;100.00
15568;BME280;7885;42.596;23.044;2023-02-28T00:40:55;93347.09;;;7.65;100.00
15568;BME280;7885;42.596;23.044;2023-02-28T00:43:21;93340.84;;;7.61;100.00
15568;BME280;7885;42.596;23.044;2023-02-28T00:45:48;93364.22;;;7.73;100.00
15568;BME280;7885;42.596;23.044;2023-02-28T00:48:15;93345.47;;;7.60;100.00
15568;BME280;7885;42.596;23.044;2023-02-28T00:50:42;93282.88;;;7.13;100.00
15568;BME280;7885;42.596;23.044;2023-02-28T00:53:08;93362.56;;;7.65;100.00
15568;BME280;7885;42.596;23.044;2023-02-28T00:55:36;93291.28;;;7.08;100.00
15568;BME280;7885;42.596;23.044;2023-02-28T00:58:03;93373.22;;;7.54;100.00
15568;BME280;7885;42.596;23.044;2023-02-28T01:00:30;93373.22;;;7.54;100.00
15568;BME280;7885;42.596;23.044;2023-02-28T01:02:56;93357.28;;;7.49;100.00
15568;BME280;7885;42.596;23.044;2023-02-28T01:05:23;93356.09;;;7.46;100.00
15568;BME280;7885;42.596;23.044;2023-02-28T01:07:50;93378.25;;;7.55;100.00
15568;BME280;7885;42.596;23.044;2023-02-28T01:10:17;93371.19;;;7.47;100.00
15568;BME280;7885;42.596;23.044;2023-02-28T01:12:45;93347.00;;;7.35;100.00
15568;BME280;7885;42.596;23.044;2023-02-28T01:15:11;93367.44;;;7.55;100.00
15568;BME280;7885;42.596;23.044;2023-02-28T01:17:38;93360.94;;;7.60;100.00
15568;BME280;7885;42.596;23.044;2023-02-28T01:20:06;93358.28;;;7.63;100.00
15568;BME280;7885;42.596;23.044;2023-02-28T01:22:34;93309.50;;;7.34;100.00
15568;BME280;7885;42.596;23.044;2023-02-28T01:25:00;93304.47;;;7.36;100.00
15568;BME280;7885;42.596;23.044;2023-02-28T01:27:27;93352.97;;;7.71;100.00
15568;BME280;7885;42.596;23.044;2023-02-28T01:29:55;93326.06;;;7.58;100.00
15568;BME280;7885;42.596;23.044;2023-02-28T01:32:22;93305.00;;;7.45;100.00
15568;BME280;7885;42.596;23.044;2023-02-28T01:34:49;93349.94;;;7.76;100.00
15568;BME280;7885;42.596;23.044;2023-02-28T01:37:15;93351.94;;;7.79;100.00
15568;BME280;7885;42.596;23.044;2023-02-28T01:39:42;93364.31;;;7.80;100.00
15568;BME280;7885;42.596;23.044;2023-02-28T01:42:09;93347.75;;;7.58;100.00
15568;BME280;7885;42.596;23.044;2023-02-28T01:44:59;93367.53;;;7.62;100.00
15568;BME280;7885;42.596;23.044;2023-02-28T01:47:29;93359.31;;;7.55;100.00
15568;BME280;7885;42.596;23.044;2023-02-28T01:49:58;93304.53;;;7.13;100.00
15568;BME280;7885;42.596;23.044;2023-02-28T01:52:27;93357.66;;;7.47;100.00
15568;BME280;7885;42.596;23.044;2023-02-28T01:54:56;93356.09;;;7.46;100.00
15568;BME280;7885;42.596;23.044;2023-02-28T01:57:27;93311.44;;;7.10;100.00
15568;BME280;7885;42.596;23.044;2023-02-28T01:59:59;93362.22;;;7.43;100.00
15568;BME280;7885;42.596;23.044;2023-02-28T02:02:32;93359.81;;;7.38;100.00
15568;BME280;7885;42.596;23.044;2023-02-28T02:05:03;93373.47;;;7.45;100.00
15568;BME280;7885;42.596;23.044;2023-02-28T02:07:33;93374.69;;;7.48;100.00
15568;BME280;7885;42.596;23.044;2023-02-28T02:10:03;93364.31;;;7.53;100.00
15568;BME280;7885;42.596;23.044;2023-02-28T02:12:45;93351.03;;;7.45;100.00
15568;BME280;7885;42.596;23.044;2023-02-28T02:15:22;93355.47;;;7.56;100.00
15568;BME280;7885;42.596;23.044;2023-02-28T02:17:52;93375.78;;;7.70;100.00
15568;BME280;7885;42.596;23.044;2023-02-28T02:20:44;93374.63;;;7.71;100.00
15568;BME280;7885;42.596;23.044;2023-02-28T02:26:27;93361.72;;;7.60;100.00
15568;BME280;7885;42.596;23.044;2023-02-28T02:32:11;93371.09;;;7.67;100.00
15568;BME280;7885;42.596;23.044;2023-02-28T02:34:56;93385.25;;;7.56;100.00
15568;BME280;7885;42.596;23.044;2023-02-28T02:37:28;93323.34;;;7.06;100.00
15568;BME280;7885;42.596;23.044;2023-02-28T02:40:03;93382.09;;;7.51;100.00
15568;BME280;7885;42.596;23.044;2023-02-28T02:42:36;93380.75;;;7.41;100.00
15568;BME280;7885;42.596;23.044;2023-02-28T02:45:10;93381.31;;;7.50;100.00
15568;BME280;7885;42.596;23.044;2023-02-28T02:47:39;93348.19;;;7.34;100.00
15568;BME280;7885;42.596;23.044;2023-02-28T02:50:12;93279.34;;;6.86;100.00
15568;BME280;7885;42.596;23.044;2023-02-28T02:52:43;93375.16;;;7.53;100.00
15568;BME280;7885;42.596;23.044;2023-02-28T02:55:13;93379.44;;;7.54;100.00
15568;BME280;7885;42.596;23.044;2023-02-28T02:57:45;93373.19;;;7.50;100.00
15568;BME280;7885;42.596;23.044;2023-02-28T03:00:16;93309.50;;;7.11;100.00
15568;BME280;7885;42.596;23.044;2023-02-28T03:02:44;93382.53;;;7.56;100.00
15568;BME280;7885;42.596;23.044;2023-02-28T03:05:17;93383.34;;;7.57;100.00
15568;BME280;7885;42.596;23.044;2023-02-28T03:07:45;93382.13;;;7.54;100.00
15568;BME280;7885;42.596;23.044;2023-02-28T03:10:34;93392.59;;;7.56;100.00
15568;BME280;7885;42.596;23.044;2023-02-28T03:13:12;93384.00;;;7.50;100.00
15568;BME280;7885;42.596;23.044;2023-02-28T03:15:54;93372.22;;;7.39;100.00
15568;BME280;7885;42.596;23.044;2023-02-28T03:18:32;93397.22;;;7.55;100.00
15568;BME280;7885;42.596;23.044;2023-02-28T03:21:10;93395.63;;;7.51;100.00
15568;BME280;7885;42.596;23.044;2023-02-28T03:23:47;93403.38;;;7.52;100.00
15568;BME280;7885;42.596;23.044;2023-02-28T03:26:20;93335.31;;;7.05;100.00
15568;BME280;7885;42.596;23.044;2023-02-28T03:28:54;93390.16;;;7.47;100.00
15568;BME280;7885;42.596;23.044;2023-02-28T03:31:29;93393.16;;;7.42;100.00
15568;BME280;7885;42.596;23.044;2023-02-28T03:34:01;93413.91;;;7.57;100.00
15568;BME280;7885;42.596;23.044;2023-02-28T03:36:36;93405.72;;;7.54;100.00
15568;BME280;7885;42.596;23.044;2023-02-28T03:39:11;93412.72;;;7.55;100.00
15568;BME280;7885;42.596;23.044;2023-02-28T03:41:42;93418.88;;;7.55;100.00
15568;BME280;7885;42.596;23.044;2023-02-28T03:44:14;93413.47;;;7.55;100.00
15568;BME280;7885;42.596;23.044;2023-02-28T03:46:47;93416.19;;;7.55;100.00
15568;BME280;7885;42.596;23.044;2023-02-28T03:49:17;93413.47;;;7.55;100.00
15568;BME280;7885;42.596;23.044;2023-02-28T03:51:47;93413.47;;;7.55;100.00
15568;BME280;7885;42.596;23.044;2023-02-28T03:54:19;93351.78;;;7.19;100.00
15568;BME280;7885;42.596;23.044;2023-02-28T03:56:52;93417.03;;;7.59;100.00
15568;BME280;7885;42.596;23.044;2023-02-28T03:59:22;93414.09;;;7.45;100.00
15568;BME280;7885;42.596;23.044;2023-02-28T04:01:52;93415.44;;;7.32;100.00
15568;BME280;7885;42.596;23.044;2023-02-28T04:04:20;93393.41;;;6.88;100.00
15568;BME280;7885;42.596;23.044;2023-02-28T04:06:50;93387.78;;;6.78;100.00
15568;BME280;7885;42.596;23.044;2023-02-28T04:09:18;93411.69;;;6.95;100.00
15568;BME280;7885;42.596;23.044;2023-02-28T04:11:46;93410.97;;;6.98;100.00
15568;BME280;7885;42.596;23.044;2023-02-28T04:14:16;93411.31;;;6.96;100.00
15568;BME280;7885;42.596;23.044;2023-02-28T04:16:43;93415.66;;;7.01;100.00
15568;BME280;7885;42.596;23.044;2023-02-28T04:19:11;93377.38;;;6.80;100.00
15568;BME280;7885;42.596;23.044;2023-02-28T04:21:40;93430.50;;;7.10;100.00
15568;BME280;7885;42.596;23.044;2023-02-28T04:24:10;93383.38;;;6.89;100.00
15568;BME280;7885;42.596;23.044;2023-02-28T04:26:40;93425.94;;;7.15;100.00
15568;BME280;7885;42.596;23.044;2023-02-28T04:29:09;93321.22;;;6.50;100.00
15568;BME280;7885;42.596;23.044;2023-02-28T04:31:36;93416.63;;;7.12;100.00
15568;BME280;7885;42.596;23.044;2023-02-28T04:34:03;93427.44;;;7.12;100.00
15568;BME280;7885;42.596;23.044;2023-02-28T04:36:30;93425.81;;;7.07;100.00
15568;BME280;7885;42.596;23.044;2023-02-28T04:38:57;93416.25;;;6.91;100.00
15568;BME280;7885;42.596;23.044;2023-02-28T04:41:25;93438.03;;;6.98;100.00
15568;BME280;7885;42.596;23.044;2023-02-28T04:43:52;93431.88;;;7.01;100.00
15568;BME280;7885;42.596;23.044;2023-02-28T04:46:19;93432.13;;;6.92;100.00
15568;BME280;7885;42.596;23.044;2023-02-28T04:48:46;93435.91;;;6.88;100.00
15568;BME280;7885;42.596;23.044;2023-02-28T04:51:15;93444.16;;;6.95;100.00
15568;BME280;7885;42.596;23.044;2023-02-28T04:53:42;93429.34;;;6.89;100.00
15568;BME280;7885;42.596;23.044;2023-02-28T04:56:12;93431.56;;;6.83;100.00
15568;BME280;7885;42.596;23.044;2023-02-28T04:58:40;93449.91;;;6.93;100.00
15568;BME280;7885;42.596;23.044;2023-02-28T05:01:17;93445.66;;;6.92;100.00
15568;BME280;7885;42.596;23.044;2023-02-28T05:03:45;93443.78;;;6.96;100.00
15568;BME280;7885;42.596;23.044;2023-02-28T05:06:12;93384.28;;;6.54;100.00
15568;BME280;7885;42.596;23.044;2023-02-28T05:08:40;93449.56;;;6.95;100.00
15568;BME280;7885;42.596;23.044;2023-02-28T05:11:12;93400.50;;;6.54;100.00
15568;BME280;7885;42.596;23.044;2023-02-28T05:13:41;93452.69;;;6.97;100.00
15568;BME280;7885;42.596;23.044;2023-02-28T05:16:08;93454.97;;;6.95;100.00
15568;BME280;7885;42.596;23.044;2023-02-28T05:18:34;93460.00;;;6.96;100.00
15568;BME280;7885;42.596;23.044;2023-02-28T05:21:01;93456.53;;;6.96;100.00
15568;BME280;7885;42.596;23.044;2023-02-28T05:23:28;93410.44;;;6.70;100.00
15568;BME280;7885;42.596;23.044;2023-02-28T05:25:56;93459.81;;;7.05;100.00
15568;BME280;7885;42.596;23.044;2023-02-28T05:28:23;93454.38;;;7.05;100.00
15568;BME280;7885;42.596;23.044;2023-02-28T05:30:51;93444.16;;;6.95;100.00
15568;BME280;7885;42.596;23.044;2023-02-28T05:33:17;93449.56;;;6.95;100.00
15568;BME280;7885;42.596;23.044;2023-02-28T05:35:44;93439.25;;;6.81;100.00
15568;BME280;7885;42.596;23.044;2023-02-28T05:38:11;93457.97;;;6.90;100.00
15568;BME280;7885;42.596;23.044;2023-02-28T05:40:38;93480.47;;;6.94;100.00
15568;BME280;7885;42.596;23.044;2023-02-28T05:43:05;93485.00;;;6.90;100.00
15568;BME280;7885;42.596;23.044;2023-02-28T05:45:32;93460.69;;;6.71;100.00
15568;BME280;7885;42.596;23.044;2023-02-28T05:48:00;93481.47;;;6.86;100.00
15568;BME280;7885;42.596;23.044;2023-02-28T05:50:27;93484.66;;;6.91;100.00
15568;BME280;7885;42.596;23.044;2023-02-28T05:52:53;93490.88;;;6.92;100.00
15568;BME280;7885;42.596;23.044;2023-02-28T05:55:20;93487.84;;;6.97;100.00
15568;BME280;7885;42.596;23.044;2023-02-28T05:57:47;93496.91;;;7.04;100.00
15568;BME280;7885;42.596;23.044;2023-02-28T06:00:14;93485.53;;;6.95;100.00
15568;BME280;7885;42.596;23.044;2023-02-28T06:02:43;93490.41;;;6.90;100.00
15568;BME280;7885;42.596;23.044;2023-02-28T06:05:14;93488.88;;;6.89;100.00
15568;BME280;7885;42.596;23.044;2023-02-28T06:07:40;93488.56;;;6.94;100.00
15568;BME280;7885;42.596;23.044;2023-02-28T06:10:08;93494.56;;;7.03;100.00
15568;BME280;7885;42.596;23.044;2023-02-28T06:12:35;93503.50;;;7.07;100.00
15568;BME280;7885;42.596;23.044;2023-02-28T06:15:03;93497.69;;;7.05;100.00
15568;BME280;7885;42.596;23.044;2023-02-28T06:17:30;93495.53;;;7.14;100.00
15568;BME280;7885;42.596;23.044;2023-02-28T06:19:57;93505.34;;;7.22;100.00
15568;BME280;7885;42.596;23.044;2023-02-28T06:22:25;93507.41;;;7.29;100.00
15568;BME280;7885;42.596;23.044;2023-02-28T06:24:51;93513.03;;;7.39;100.00
15568;BME280;7885;42.596;23.044;2023-02-28T06:27:20;93431.03;;;6.97;100.00
15568;BME280;7885;42.596;23.044;2023-02-28T06:29:47;93512.56;;;7.56;100.00
15568;BME280;7885;42.596;23.044;2023-02-28T06:32:14;93511.59;;;7.68;100.00
15568;BME280;7885;42.596;23.044;2023-02-28T06:34:41;93512.91;;;7.78;100.00
15568;BME280;7885;42.596;23.044;2023-02-28T06:37:07;93505.94;;;7.77;100.00
15568;BME280;7885;42.596;23.044;2023-02-28T06:39:35;93512.44;;;7.95;100.00
15568;BME280;7885;42.596;23.044;2023-02-28T06:42:02;93517.97;;;8.02;100.00
15568;BME280;7885;42.596;23.044;2023-02-28T06:44:29;93515.78;;;8.11;100.00
15568;BME280;7885;42.596;23.044;2023-02-28T06:47:00;93518.91;;;8.13;100.00
15568;BME280;7885;42.596;23.044;2023-02-28T06:49:28;93518.25;;;8.20;100.00
15568;BME280;7885;42.596;23.044;2023-02-28T06:51:55;93530.69;;;8.24;100.00
15568;BME280;7885;42.596;23.044;2023-02-28T06:54:22;93526.91;;;8.29;100.00
15568;BME280;7885;42.596;23.044;2023-02-28T06:56:50;93521.56;;;8.32;100.00
15568;BME280;7885;42.596;23.044;2023-02-28T06:59:17;93525.50;;;8.38;100.00
15568;BME280;7885;42.596;23.044;2023-02-28T07:01:43;93530.19;;;8.41;100.00
15568;BME280;7885;42.596;23.044;2023-02-28T07:04:10;93518.34;;;8.27;100.00
15568;BME280;7885;42.596;23.044;2023-02-28T07:06:38;93530.63;;;8.43;100.00
15568;BME280;7885;42.596;23.044;2023-02-28T07:09:05;93534.44;;;8.39;100.00
15568;BME280;7885;42.596;23.044;2023-02-28T07:11:32;93526.28;;;8.39;100.00
15568;BME280;7885;42.596;23.044;2023-02-28T07:14:00;93544.19;;;8.43;100.00
15568;BME280;7885;42.596;23.044;2023-02-28T07:16:27;93540.34;;;8.44;100.00
15568;BME280;7885;42.596;23.044;2023-02-28T07:18:54;93525.41;;;8.31;100.00
15568;BME280;7885;42.596;23.044;2023-02-28T07:21:22;93533.28;;;8.40;100.00
15568;BME280;7885;42.596;23.044;2023-02-28T07:23:49;93526.19;;;8.32;100.00
15568;BME280;7885;42.596;23.044;2023-02-28T07:26:17;93528.66;;;8.40;100.00
15568;BME280;7885;42.596;23.044;2023-02-28T07:28:45;93511.94;;;8.38;100.00
15568;BME280;7885;42.596;23.044;2023-02-28T07:31:14;93535.72;;;8.48;100.00
15568;BME280;7885;42.596;23.044;2023-02-28T07:33:42;93529.91;;;8.46;100.00
15568;BME280;7885;42.596;23.044;2023-02-28T07:36:15;93538.09;;;8.50;100.00
15568;BME280;7885;42.596;23.044;2023-02-28T07:38:45;93524.31;;;8.36;100.00
15568;BME280;7885;42.596;23.044;2023-02-28T07:41:13;93544.19;;;8.43;100.00
15568;BME280;7885;42.596;23.044;2023-02-28T07:43:40;93544.88;;;8.37;100.00
15568;BME280;7885;42.596;23.044;2023-02-28T07:46:08;93524.25;;;8.32;100.00
15568;BME280;7885;42.596;23.044;2023-02-28T07:48:36;93542.31;;;8.47;100.00
15568;BME280;7885;42.596;23.044;2023-02-28T07:51:04;93509.34;;;8.45;100.00
15568;BME280;7885;42.596;23.044;2023-02-28T07:53:30;93536.88;;;8.74;100.00
15568;BME280;7885;42.596;23.044;2023-02-28T07:55:58;93538.19;;;8.87;100.00
15568;BME280;7885;42.596;23.044;2023-02-28T07:58:26;93544.88;;;8.93;99.22
15568;BME280;7885;42.596;23.044;2023-02-28T08:00:54;93544.88;;;8.93;99.51
15568;BME280;7885;42.596;23.044;2023-02-28T08:03:22;93545.97;;;8.88;98.76
15568;BME280;7885;42.596;23.044;2023-02-28T08:05:50;93551.47;;;8.92;98.66
15568;BME280;7885;42.596;23.044;2023-02-28T08:08:18;93550.91;;;9.09;98.83
15568;BME280;7885;42.596;23.044;2023-02-28T08:10:45;93546.34;;;9.17;98.43
15568;BME280;7885;42.596;23.044;2023-02-28T08:13:11;93530.97;;;9.64;97.86
15568;BME280;7885;42.596;23.044;2023-02-28T08:15:40;93546.13;;;10.09;94.99
15568;BME280;7885;42.596;23.044;2023-02-28T08:18:07;93548.06;;;10.56;93.16
15568;BME280;7885;42.596;23.044;2023-02-28T08:20:33;93546.66;;;10.77;91.90
15568;BME280;7885;42.596;23.044;2023-02-28T08:23:02;93549.84;;;10.86;90.65
15568;BME280;7885;42.596;23.044;2023-02-28T08:25:28;93541.19;;;10.77;91.04
15568;BME280;7885;42.596;23.044;2023-02-28T08:27:55;93516.00;;;10.29;90.39
15568;BME280;7885;42.596;23.044;2023-02-28T08:30:22;93537.00;;;10.32;91.35
15568;BME280;7885;42.596;23.044;2023-02-28T08:32:48;93536.22;;;10.31;92.19
15568;BME280;7885;42.596;23.044;2023-02-28T08:35:15;93547.81;;;10.21;92.26
15568;BME280;7885;42.596;23.044;2023-02-28T08:37:42;93547.66;;;10.07;92.35
15568;BME280;7885;42.596;23.044;2023-02-28T08:40:11;93552.31;;;10.03;93.02
15568;BME280;7885;42.596;23.044;2023-02-28T08:42:43;93550.41;;;10.10;93.90
15568;BME280;7885;42.596;23.044;2023-02-28T08:45:10;93545.09;;;10.21;93.01
15568;BME280;7885;42.596;23.044;2023-02-28T08:47:37;93541.72;;;10.38;92.03
15568;BME280;7885;42.596;23.044;2023-02-28T08:50:04;93540.63;;;10.46;92.40
15568;BME280;7885;42.596;23.044;2023-02-28T08:52:31;93517.19;;;10.35;90.93
15568;BME280;7885;42.596;23.044;2023-02-28T08:54:58;93544.59;;;10.59;90.82
15568;BME280;7885;42.596;23.044;2023-02-28T08:57:26;93523.94;;;10.48;89.72
15568;BME280;7885;42.596;23.044;2023-02-28T09:03:24;93534.53;;;10.67;87.95
15568;BME280;7885;42.596;23.044;2023-02-28T09:05:54;93520.81;;;10.49;88.35
15568;BME280;7885;42.596;23.044;2023-02-28T09:08:22;93514.88;;;10.33;90.52
15568;BME280;7885;42.596;23.044;2023-02-28T09:10:48;93492.53;;;10.10;89.95
15568;BME280;7885;42.596;23.044;2023-02-28T09:13:17;93530.88;;;10.42;91.46
15568;BME280;7885;42.596;23.044;2023-02-28T09:15:44;93487.63;;;10.26;90.72
15568;BME280;7885;42.596;23.044;2023-02-28T09:18:11;93458.34;;;10.12;90.28
15568;BME280;7885;42.596;23.044;2023-02-28T09:20:38;93468.00;;;10.57;90.02
15568;BME280;7885;42.596;23.044;2023-02-28T09:23:06;93537.59;;;11.31;86.48
15568;BME280;7885;42.596;23.044;2023-02-28T09:25:32;93536.97;;;11.76;86.71
15568;BME280;7885;42.596;23.044;2023-02-28T09:27:59;93530.00;;;11.86;84.68
15568;BME280;7885;42.596;23.044;2023-02-28T09:30:28;93544.78;;;11.85;82.79
15568;BME280;7885;42.596;23.044;2023-02-28T09:32:54;93536.19;;;11.79;83.30
15568;BME280;7885;42.596;23.044;2023-02-28T09:35:22;93522.53;;;11.69;83.77
15568;BME280;7885;42.596;23.044;2023-02-28T09:37:51;93513.88;;;11.42;83.83
15568;BME280;7885;42.596;23.044;2023-02-28T09:40:19;93490.06;;;11.25;84.55
15568;BME280;7885;42.596;23.044;2023-02-28T09:42:48;93492.84;;;11.35;85.80
15568;BME280;7885;42.596;23.044;2023-02-28T09:45:22;93528.03;;;11.83;85.20
15568;BME280;7885;42.596;23.044;2023-02-28T09:47:52;93530.75;;;11.90;83.83
15568;BME280;7885;42.596;23.044;2023-02-28T09:50:29;93518.31;;;12.13;83.97
15568;BME280;7885;42.596;23.044;2023-02-28T09:52:59;93530.00;;;12.78;81.90
15568;BME280;7885;42.596;23.044;2023-02-28T09:55:30;93521.75;;;13.02;79.60
15568;BME280;7885;42.596;23.044;2023-02-28T10:04:47;93499.88;;;13.13;82.84
15568;BME280;7885;42.596;23.044;2023-02-28T10:07:32;93517.38;;;13.37;81.12
15568;BME280;7885;42.596;23.044;2023-02-28T10:10:06;93461.72;;;12.71;79.89
15568;BME280;7885;42.596;23.044;2023-02-28T10:12:41;93510.34;;;13.29;79.42
15568;BME280;7885;42.596;23.044;2023-02-28T10:15:14;93461.91;;;13.36;78.67
15568;BME280;7885;42.596;23.044;2023-02-28T10:17:43;93455.59;;;13.46;78.39
15568;BME280;7885;42.596;23.044;2023-02-28T10:20:17;93503.88;;;13.78;78.02
15568;BME280;7885;42.596;23.044;2023-02-28T10:22:52;93508.16;;;13.79;77.51
15568;BME280;7885;42.596;23.044;2023-02-28T10:25:21;93504.59;;;13.89;77.91
15568;BME280;7885;42.596;23.044;2023-02-28T10:27:49;93502.75;;;14.27;78.29
15568;BME280;7885;42.596;23.044;2023-02-28T10:30:16;93495.50;;;14.54;77.60
15568;BME280;7885;42.596;23.044;2023-02-28T10:32:49;93455.94;;;14.10;76.23
15568;BME280;7885;42.596;23.044;2023-02-28T10:35:18;93495.47;;;14.06;78.47
15568;BME280;7885;42.596;23.044;2023-02-28T10:37:47;93494.44;;;13.89;80.03
15568;BME280;7885;42.596;23.044;2023-02-28T10:40:28;93472.72;;;13.57;80.16
15568;BME280;7885;42.596;23.044;2023-02-28T10:42:57;93489.91;;;13.61;81.49
15568;BME280;7885;42.596;23.044;2023-02-28T10:45:25;93456.06;;;13.31;81.89
15568;BME280;7885;42.596;23.044;2023-02-28T10:47:53;93461.94;;;13.29;82.06
15568;BME280;7885;42.596;23.044;2023-02-28T10:50:32;93477.59;;;13.22;83.10
15568;BME280;7885;42.596;23.044;2023-02-28T10:53:17;93476.81;;;13.07;83.14
15568;BME280;7885;42.596;23.044;2023-02-28T10:55:56;93439.03;;;12.88;84.25
15568;BME280;7885;42.596;23.044;2023-02-28T10:58:25;93457.31;;;13.12;84.27
15568;BME280;7885;42.596;23.044;2023-02-28T11:00:53;93451.41;;;13.24;83.92
15568;BME280;7885;42.596;23.044;2023-02-28T11:06:43;93451.69;;;13.47;81.81
15568;BME280;7885;42.596;23.044;2023-02-28T11:09:20;93443.81;;;13.56;81.72
15568;BME280;7885;42.596;23.044;2023-02-28T11:11:49;93407.25;;;13.29;81.09
15568;BME280;7885;42.596;23.044;2023-02-28T11:14:21;93429.06;;;13.43;80.33
15568;BME280;7885;42.596;23.044;2023-02-28T11:16:49;93438.41;;;13.46;80.64
15568;BME280;7885;42.596;23.044;2023-02-28T11:19:19;93436.47;;;13.43;81.35
15568;BME280;7885;42.596;23.044;2023-02-28T11:21:53;93432.97;;;13.42;80.26
15568;BME280;7885;42.596;23.044;2023-02-28T11:24:23;93426.09;;;13.13;80.12
15568;BME280;7885;42.596;23.044;2023-02-28T11:26:50;93436.00;;;12.64;82.31
15568;BME280;7885;42.596;23.044;2023-02-28T11:29:20;93425.47;;;12.52;84.39
15568;BME280;7885;42.596;23.044;2023-02-28T11:32:05;93427.06;;;12.39;85.03
15568;BME280;7885;42.596;23.044;2023-02-28T11:34:35;93418.03;;;12.71;85.13
15568;BME280;7885;42.596;23.044;2023-02-28T11:37:05;93418.69;;;13.03;84.56
15568;BME280;7885;42.596;23.044;2023-02-28T11:39:37;93417.03;;;13.30;84.58
15568;BME280;7885;42.596;23.044;2023-02-28T11:42:26;93425.75;;;13.70;81.56
15568;BME280;7885;42.596;23.044;2023-02-28T11:45:07;93379.44;;;13.93;80.57
15568;BME280;7885;42.596;23.044;2023-02-28T11:47:42;93408.75;;;14.44;77.36
15568;BME280;7885;42.596;23.044;2023-02-28T11:50:18;93421.50;;;14.95;76.65
15568;BME280;7885;42.596;23.044;2023-02-28T11:52:52;93424.44;;;15.41;73.77
15568;BME280;7885;42.596;23.044;2023-02-28T11:55:24;93392.78;;;14.73;74.42
15568;BME280;7885;42.596;23.044;2023-02-28T11:58:34;93422.13;;;15.40;74.48
15568;BME280;7885;42.596;23.044;2023-02-28T12:04:24;93411.06;;;15.16;72.44
15568;BME280;7885;42.596;23.044;2023-02-28T12:06:57;93412.03;;;15.03;73.95
15568;BME280;7885;42.596;23.044;2023-02-28T12:09:43;93384.31;;;14.94;76.33
15568;BME280;7885;42.596;23.044;2023-02-28T12:12:21;93386.13;;;15.04;75.61
15568;BME280;7885;42.596;23.044;2023-02-28T12:15:23;93397.66;;;15.22;75.31
15568;BME280;7885;42.596;23.044;2023-02-28T12:18:05;93398.41;;;15.26;74.97
15568;BME280;7885;42.596;23.044;2023-02-28T12:20:37;93378.81;;;15.24;75.11
15568;BME280;7885;42.596;23.044;2023-02-28T12:26:13;93392.63;;;14.87;75.18
15568;BME280;7885;42.596;23.044;2023-02-28T12:28:46;93393.00;;;15.19;74.91
15568;BME280;7885;42.596;23.044;2023-02-28T12:31:19;93379.16;;;15.60;73.90
15568;BME280;7885;42.596;23.044;2023-02-28T12:33:51;93383.66;;;15.97;71.48
15568;BME280;7885;42.596;23.044;2023-02-28T12:36:19;93384.44;;;15.97;71.14
15568;BME280;7885;42.596;23.044;2023-02-28T12:38:49;93364.63;;;15.86;71.27
15568;BME280;7885;42.596;23.044;2023-02-28T12:41:22;93383.09;;;16.09;73.22
15568;BME280;7885;42.596;23.044;2023-02-28T12:43:58;93372.66;;;16.24;73.06
15568;BME280;7885;42.596;23.044;2023-02-28T12:46:32;93378.53;;;16.22;73.02
15568;BME280;7885;42.596;23.044;2023-02-28T12:49:04;93367.22;;;16.20;73.14
15568;BME280;7885;42.596;23.044;2023-02-28T12:51:32;93369.41;;;16.29;73.20
15568;BME280;7885;42.596;23.044;2023-02-28T12:54:07;93352.31;;;16.17;72.83
15568;BME280;7885;42.596;23.044;2023-02-28T12:56:44;93363.75;;;16.16;73.22
15568;BME280;7885;42.596;23.044;2023-02-28T12:59:22;93355.84;;;15.95;72.54
15568;BME280;7885;42.596;23.044;2023-02-28T13:02:01;93356.13;;;15.77;73.57
15568;BME280;7885;42.596;23.044;2023-02-28T13:08:27;93350.81;;;15.66;74.75
15568;BME280;7885;42.596;23.044;2023-02-28T13:11:01;93365.72;;;15.65;73.57
15568;BME280;7885;42.596;23.044;2023-02-28T13:13:30;93361.91;;;15.59;74.08
15568;BME280;7885;42.596;23.044;2023-02-28T13:16:00;93346.22;;;15.60;75.02
15568;BME280;7885;42.596;23.044;2023-02-28T13:18:30;93343.66;;;15.73;75.11
15568;BME280;7885;42.596;23.044;2023-02-28T13:20:59;93344.81;;;15.75;73.99
15568;BME280;7885;42.596;23.044;2023-02-28T13:26:22;93330.88;;;15.62;73.21
15568;BME280;7885;42.596;23.044;2023-02-28T13:29:24;93348.75;;;15.47;73.24
15568;BME280;7885;42.596;23.044;2023-02-28T13:32:25;93336.09;;;15.57;75.30
15568;BME280;7885;42.596;23.044;2023-02-28T13:35:14;93316.97;;;15.50;74.70
15568;BME280;7885;42.596;23.044;2023-02-28T13:37:43;93325.09;;;15.57;74.34
15568;BME280;7885;42.596;23.044;2023-02-28T13:40:30;93328.34;;;15.48;74.13
15568;BME280;7885;42.596;23.044;2023-02-28T13:43:02;93318.72;;;15.37;74.77
15568;BME280;7885;42.596;23.044;2023-02-28T13:45:31;93322.75;;;15.29;75.43
15568;BME280;7885;42.596;23.044;2023-02-28T13:48:04;93319.28;;;15.25;75.95
15568;BME280;7885;42.596;23.044;2023-02-28T13:50:42;93315.50;;;15.15;75.64